createdAt,value
2022-12-15T00:01:50.188Z,96377.09
2022-12-15T00:05:10.911Z,96387.28
2022-12-15T00:08:31.363Z,96377.78
2022-12-15T00:11:52.128Z,96370.84
2022-12-15T00:15:12.599Z,96363.81
2022-12-15T00:18:33.276Z,96357.00
2022-12-15T00:21:54.177Z,96362.91
2022-12-15T00:25:14.868Z,96367.09
2022-12-15T00:28:35.273Z,96381.72
2022-12-15T00:31:55.721Z,96383.31
2022-12-15T00:35:16.114Z,96382.28
2022-12-15T00:38:36.658Z,96392.56
2022-12-15T00:41:38.937Z,96395.81
2022-12-15T00:44:40.982Z,96395.81
2022-12-15T00:47:43.044Z,96399.09
2022-12-15T00:50:54.003Z,96396.41
2022-12-15T00:54:18.077Z,96410.09
2022-12-15T00:57:38.983Z,96420.28
2022-12-15T01:00:59.877Z,96417.63
2022-12-15T01:04:20.486Z,96418.38
2022-12-15T01:07:41.407Z,96419.94
2022-12-15T01:11:02.095Z,96419.78
2022-12-15T01:14:22.453Z,96425.88
2022-12-15T01:17:43.152Z,96430.47
2022-12-15T01:20:45.355Z,96440.97
2022-12-15T01:23:47.413Z,96449.50
2022-12-15T01:26:50.814Z,96450.28
2022-12-15T01:29:52.755Z,96432.16
2022-12-15T01:32:54.867Z,96450.28
2022-12-15T01:36:01.100Z,96452.75
2022-12-15T01:39:03.400Z,96446.66
2022-12-15T01:42:05.399Z,96458.59
2022-12-15T01:45:28.988Z,96457.63
2022-12-15T01:48:40.703Z,96466.16
2022-12-15T01:51:48.479Z,96469.66
2022-12-15T01:54:56.041Z,96468.81
2022-12-15T01:58:03.858Z,96467.97
2022-12-15T02:01:07.220Z,96485.16
2022-12-15T02:04:09.516Z,96486.00
2022-12-15T02:07:15.450Z,96487.56
2022-12-15T02:10:17.685Z,96479.81
2022-12-15T02:13:34.394Z,96492.75
2022-12-15T02:16:48.580Z,96498.03
2022-12-15T02:20:27.828Z,96499.78
2022-12-15T02:23:41.100Z,96504.19
2022-12-15T02:26:46.012Z,96509.38
2022-12-15T02:30:09.781Z,96517.13
2022-12-15T02:33:24.580Z,96528.41
2022-12-15T02:36:29.465Z,96537.91
2022-12-15T02:39:31.498Z,96514.53
2022-12-15T02:42:35.972Z,96515.47
2022-12-15T02:45:56.005Z,96523.22
2022-12-15T02:48:57.990Z,96514.69
2022-12-15T02:52:27.778Z,96529.22
2022-12-15T02:55:46.710Z,96539.66
2022-12-15T02:59:13.800Z,96559.44
2022-12-15T03:02:16.073Z,96569.81
2022-12-15T03:05:20.134Z,96562.09
2022-12-15T03:08:22.528Z,96563.78
2022-12-15T03:11:24.758Z,96566.31
2022-12-15T03:14:26.766Z,96562.81
2022-12-15T03:17:28.805Z,96574.84
2022-12-15T03:20:30.784Z,96575.66
2022-12-15T03:23:34.415Z,96574.84
2022-12-15T03:26:36.627Z,96584.34
2022-12-15T03:29:38.653Z,96588.69
2022-12-15T03:32:40.771Z,96593.78
2022-12-15T03:35:42.786Z,96582.66
2022-12-15T03:38:44.817Z,96591.34
2022-12-15T03:41:46.796Z,96602.53
2022-12-15T03:44:48.728Z,96599.94
2022-12-15T03:47:52.081Z,96600.72
2022-12-15T03:50:54.148Z,96618.81
2022-12-15T03:53:56.185Z,96631.00
2022-12-15T03:56:58.150Z,96623.22
2022-12-15T04:00:00.263Z,96622.53
2022-12-15T04:03:02.387Z,96612.34
2022-12-15T04:06:05.061Z,96603.91
2022-12-15T04:09:07.072Z,96608.38
2022-12-15T04:12:11.831Z,96595.44
2022-12-15T04:15:14.341Z,96590.19
2022-12-15T04:18:16.309Z,96602.91
2022-12-15T04:21:18.358Z,96624.22
2022-12-15T04:24:38.860Z,96631.84
2022-12-15T04:28:01.732Z,96633.19
2022-12-15T04:31:27.990Z,96635.56
2022-12-15T04:34:48.596Z,96646.72
2022-12-15T04:38:09.396Z,96644.06
2022-12-15T04:41:30.314Z,96660.34
2022-12-15T04:44:50.758Z,96664.69
2022-12-15T04:48:11.273Z,96659.44
2022-12-15T04:51:31.725Z,96659.53
2022-12-15T04:54:52.041Z,96672.53
2022-12-15T04:58:12.441Z,96678.53
2022-12-15T05:01:33.204Z,96673.44
2022-12-15T05:04:54.129Z,96687.31
2022-12-15T05:08:17.449Z,96677.88
2022-12-15T05:11:37.814Z,96677.78
2022-12-15T05:14:58.196Z,96681.31
2022-12-15T05:18:18.531Z,96696.66
2022-12-15T05:21:39.235Z,96698.41
2022-12-15T05:24:59.905Z,96690.66
2022-12-15T05:28:20.336Z,96692.41
2022-12-15T05:31:40.785Z,96691.56
2022-12-15T05:34:42.755Z,96700.09
2022-12-15T05:37:44.768Z,96697.50
2022-12-15T05:40:46.884Z,96698.34
2022-12-15T05:43:49.625Z,96699.13
2022-12-15T05:46:52.047Z,96700.78
2022-12-15T05:49:54.144Z,96710.25
2022-12-15T05:52:58.489Z,96716.25
2022-12-15T05:56:04.989Z,96724.03
2022-12-15T05:59:07.072Z,96723.25
2022-12-15T06:02:09.235Z,96721.66
2022-12-15T06:05:11.365Z,96726.81
2022-12-15T06:08:13.419Z,96719.91
2022-12-15T06:11:17.894Z,96697.44
2022-12-15T06:14:20.046Z,96705.13
2022-12-15T06:17:22.087Z,96705.13
2022-12-15T06:20:24.531Z,96726.69
2022-12-15T06:23:28.891Z,96746.47
2022-12-15T06:26:34.189Z,96753.34
2022-12-15T06:29:36.241Z,96763.63
2022-12-15T06:32:38.228Z,96762.00
2022-12-15T06:35:40.253Z,96765.44
2022-12-15T06:38:45.796Z,96772.28
2022-12-15T06:41:52.163Z,96767.13
2022-12-15T06:44:54.227Z,96778.38
2022-12-15T06:48:01.175Z,96789.50
2022-12-15T06:51:15.012Z,96794.59
2022-12-15T06:54:19.087Z,96795.44
2022-12-15T06:57:21.068Z,96786.69
2022-12-15T07:00:23.462Z,96788.44
2022-12-15T07:03:25.818Z,96778.06
2022-12-15T07:06:32.134Z,96780.53
2022-12-15T07:09:34.146Z,96799.41
2022-12-15T07:12:36.187Z,96799.31
2022-12-15T07:15:38.723Z,96808.75
2022-12-15T07:18:41.081Z,96813.81
2022-12-15T07:21:43.216Z,96811.06
2022-12-15T07:24:45.230Z,96814.34
2022-12-15T07:27:47.975Z,96809.31
2022-12-15T07:30:50.108Z,96818.78
2022-12-15T07:33:52.903Z,96826.44
2022-12-15T07:36:55.741Z,96838.34
2022-12-15T07:39:58.126Z,96862.41
2022-12-15T07:43:00.341Z,96847.66
2022-12-15T07:46:03.112Z,96854.34
2022-12-15T07:49:05.343Z,96856.72
2022-12-15T07:52:07.534Z,96872.88
2022-12-15T07:55:09.809Z,96882.09
2022-12-15T07:58:11.849Z,96888.72
2022-12-15T08:01:15.714Z,96890.03
2022-12-15T08:04:18.808Z,96891.25
2022-12-15T08:07:20.840Z,96901.34
2022-12-15T08:10:22.879Z,96896.66
2022-12-15T08:13:52.867Z,96892.91
2022-12-15T08:16:47.059Z,96883.03
2022-12-15T08:19:49.199Z,96896.19
2022-12-15T08:22:52.103Z,96892.38
2022-12-15T08:25:54.123Z,96905.94
2022-12-15T08:28:56.212Z,96911.75
2022-12-15T08:31:58.365Z,96917.66
2022-12-15T08:35:00.450Z,96916.59
2022-12-15T08:38:05.669Z,96919.72
2022-12-15T08:41:08.995Z,96917.97
2022-12-15T08:44:11.119Z,96914.16
2022-12-15T08:47:13.120Z,96930.22
2022-12-15T08:50:15.115Z,96933.88
2022-12-15T08:53:32.574Z,96930.56
2022-12-15T08:56:36.112Z,96944.31
2022-12-15T08:59:38.277Z,96958.19
2022-12-15T09:02:40.292Z,96959.81
2022-12-15T09:05:42.435Z,96963.09
2022-12-15T09:08:45.047Z,96961.34
2022-12-15T09:11:52.409Z,96946.75
2022-12-15T09:14:54.539Z,96951.88
2022-12-15T09:17:56.704Z,96950.25
2022-12-15T09:21:03.549Z,96937.03
2022-12-15T09:24:05.938Z,96924.91
2022-12-15T09:27:08.137Z,96935.75
2022-12-15T09:30:10.421Z,96943.34
2022-12-15T09:33:12.379Z,96952.31
2022-12-15T09:36:15.021Z,96960.16
2022-12-15T09:39:17.212Z,96951.63
2022-12-15T09:42:28.521Z,96952.13
2022-12-15T09:45:39.483Z,96935.69
2022-12-15T09:48:45.213Z,96942.31
2022-12-15T09:51:56.542Z,96955.84
2022-12-15T09:54:59.648Z,96958.16
2022-12-15T09:58:30.991Z,96951.00
2022-12-15T10:02:05.097Z,96953.66
2022-12-15T10:05:38.136Z,96953.13
2022-12-15T10:08:54.586Z,96958.66
2022-12-15T10:12:05.629Z,96949.81
2022-12-15T10:15:20.453Z,96945.81
2022-12-15T10:18:27.052Z,96956.06
2022-12-15T10:21:32.163Z,96942.50
2022-12-15T10:25:08.724Z,96948.53
2022-12-15T10:28:24.275Z,96929.06
2022-12-15T10:32:05.543Z,96941.03
2022-12-15T10:35:14.669Z,96960.63
2022-12-15T10:38:38.182Z,96954.00
2022-12-15T10:41:44.731Z,96955.41
2022-12-15T10:44:51.678Z,96941.44
2022-12-15T10:48:02.611Z,96952.81
2022-12-15T10:51:32.754Z,96945.28
2022-12-15T10:54:37.153Z,96943.94
2022-12-15T10:57:39.299Z,96951.13
2022-12-15T11:00:41.540Z,96956.53
2022-12-15T11:03:44.631Z,96956.59
2022-12-15T11:06:48.643Z,96952.41
2022-12-15T11:10:02.356Z,96962.72
2022-12-15T11:13:16.303Z,96961.19
2022-12-15T11:16:19.954Z,96958.59
2022-12-15T11:20:01.975Z,96940.44
2022-12-15T11:23:25.125Z,96937.44
2022-12-15T11:26:27.045Z,96946.06
2022-12-15T11:29:53.810Z,96942.94
2022-12-15T11:33:00.621Z,96946.59
2022-12-15T11:36:28.331Z,96955.00
2022-12-15T11:40:01.392Z,96955.06
2022-12-15T11:43:32.830Z,96929.75
2022-12-15T11:46:52.561Z,96931.22
2022-12-15T11:50:19.341Z,96930.91
2022-12-15T11:53:46.084Z,96926.34
2022-12-15T11:57:00.082Z,96923.88
2022-12-15T12:00:20.623Z,96931.16
2022-12-15T12:03:25.353Z,96940.75
2022-12-15T12:06:40.816Z,96934.78
2022-12-15T12:10:04.631Z,96939.38
2022-12-15T12:13:44.130Z,96941.13
2022-12-15T12:17:03.656Z,96939.38
2022-12-15T12:20:36.352Z,96944.50
2022-12-15T12:24:00.860Z,96934.34
2022-12-15T12:27:34.203Z,96927.41
2022-12-15T12:30:48.751Z,96921.97
2022-12-15T12:33:58.926Z,96926.25
2022-12-15T12:37:33.044Z,96927.09
2022-12-15T12:40:41.242Z,96933.34
2022-12-15T12:43:51.224Z,96929.28
2022-12-15T12:46:56.441Z,96946.59
2022-12-15T12:50:15.648Z,96948.13
2022-12-15T12:53:35.315Z,96942.72
2022-12-15T12:56:44.071Z,96959.09
2022-12-15T13:00:07.116Z,96962.53
2022-12-15T13:03:11.874Z,96958.19
2022-12-15T13:06:42.868Z,96952.88
2022-12-15T13:10:01.075Z,96968.28
2022-12-15T13:13:12.163Z,96965.91
2022-12-15T13:16:26.887Z,96946.00
2022-12-15T13:20:00.891Z,96928.69
2022-12-15T13:23:21.551Z,96922.66
2022-12-15T13:26:23.678Z,96923.81
2022-12-15T13:29:26.346Z,96932.50
2022-12-15T13:32:40.593Z,96940.28
2022-12-15T13:35:43.511Z,96940.28
2022-12-15T13:38:54.373Z,96960.78
2022-12-15T13:45:33.385Z,96961.69
2022-12-15T13:48:41.300Z,96972.16
2022-12-15T13:51:51.527Z,96979.94
2022-12-15T13:55:01.468Z,96969.72
2022-12-15T13:58:13.779Z,96956.06
2022-12-15T14:01:25.950Z,96964.84
2022-12-15T14:04:29.406Z,96955.28
2022-12-15T14:07:31.572Z,96950.19
2022-12-15T14:10:33.547Z,96961.59
2022-12-15T14:13:37.421Z,96964.34
2022-12-15T14:16:40.020Z,96955.06
2022-12-15T14:19:44.785Z,96944.75
2022-12-15T14:22:47.577Z,96948.31
2022-12-15T14:26:04.918Z,96938.09
2022-12-15T14:29:07.082Z,96943.13
2022-12-15T14:32:10.411Z,96944.13
2022-12-15T14:35:26.499Z,96935.50
2022-12-15T14:38:33.909Z,96942.38
2022-12-15T14:41:40.766Z,96948.31
2022-12-15T14:44:49.736Z,96938.94
2022-12-15T14:51:19.196Z,96926.09
2022-12-15T14:54:39.814Z,96926.91
2022-12-15T14:57:45.093Z,96902.91
2022-12-15T15:00:53.078Z,96895.06
2022-12-15T15:04:00.642Z,96877.66
2022-12-15T15:07:06.390Z,96879.59
2022-12-15T15:10:27.626Z,96887.63
2022-12-15T15:13:40.943Z,96902.56
2022-12-15T15:16:44.348Z,96909.66
2022-12-15T15:19:54.045Z,96917.66
2022-12-15T15:23:07.931Z,96946.28
2022-12-15T15:26:10.772Z,96963.56
2022-12-15T15:29:31.214Z,96966.16
2022-12-15T15:32:33.164Z,96967.78
2022-12-15T15:35:35.417Z,96956.44
2022-12-15T15:38:41.996Z,96951.31
2022-12-15T15:41:44.187Z,96960.84
2022-12-15T15:44:46.188Z,96952.22
2022-12-15T15:47:51.655Z,96962.59
2022-12-15T15:51:00.622Z,96951.31
2022-12-15T15:54:06.517Z,96951.38
2022-12-15T15:57:15.755Z,96946.34
2022-12-15T16:00:21.680Z,96945.44
2022-12-15T16:03:23.913Z,96932.50
2022-12-15T16:06:26.102Z,96936.06
2022-12-15T16:09:28.189Z,96942.91
2022-12-15T16:12:42.660Z,96936.75
2022-12-15T16:15:45.487Z,96947.06
2022-12-15T16:18:48.046Z,96938.31
2022-12-15T16:21:52.169Z,96936.47
2022-12-15T16:24:54.200Z,96920.84
2022-12-15T16:27:56.305Z,96932.22
2022-12-15T16:30:59.001Z,96926.25
2022-12-15T16:34:01.162Z,96935.78
2022-12-15T16:37:04.177Z,96928.06
2022-12-15T16:40:22.779Z,96926.34
2022-12-15T16:43:28.936Z,96925.50
2022-12-15T16:46:35.144Z,96916.09
2022-12-15T16:49:40.319Z,96907.50
2022-12-15T16:52:46.763Z,96903.22
2022-12-15T16:55:55.119Z,96898.13
2022-12-15T16:59:30.986Z,96906.81
2022-12-15T17:02:29.194Z,96896.38
2022-12-15T17:05:34.844Z,96893.72
2022-12-15T17:08:42.808Z,96906.13
2022-12-15T17:11:45.493Z,96915.69
2022-12-15T17:14:47.790Z,96928.66
2022-12-15T17:17:53.724Z,96930.41
2022-12-15T17:21:05.615Z,96927.81
2022-12-15T17:24:13.923Z,96930.31
2022-12-15T17:27:29.060Z,96935.44
2022-12-15T17:30:31.667Z,96926.75
2022-12-15T17:33:43.107Z,96923.41
2022-12-15T17:36:45.204Z,96927.75
2022-12-15T17:39:51.770Z,96924.38
2022-12-15T17:42:54.129Z,96915.75
2022-12-15T17:45:56.470Z,96915.03
2022-12-15T17:48:58.781Z,96926.28
2022-12-15T17:52:04.804Z,96916.06
2022-12-15T17:55:29.036Z,96915.34
2022-12-15T17:58:33.967Z,96912.09
2022-12-15T18:01:36.717Z,96921.44
2022-12-15T18:04:39.752Z,96924.88
2022-12-15T18:07:42.117Z,96926.63
2022-12-15T18:10:45.395Z,96912.09
2022-12-15T18:13:47.813Z,96898.50
2022-12-15T18:16:50.522Z,96905.66
2022-12-15T18:19:52.670Z,96890.03
2022-12-15T18:22:55.185Z,96887.31
2022-12-15T18:26:02.959Z,96893.31
2022-12-15T18:29:20.604Z,96903.63
2022-12-15T18:32:25.764Z,96910.41
2022-12-15T18:35:37.087Z,96912.00
2022-12-15T18:38:39.860Z,96903.31
2022-12-15T18:41:42.534Z,96898.13
2022-12-15T18:44:50.808Z,96903.41
2022-12-15T18:47:54.538Z,96898.91
2022-12-15T18:50:59.301Z,96891.28
2022-12-15T18:54:01.595Z,96888.84
2022-12-15T18:57:03.936Z,96878.56
2022-12-15T19:00:15.174Z,96873.41
2022-12-15T19:03:21.577Z,96860.38
2022-12-15T19:06:36.150Z,96860.44
2022-12-15T19:09:38.614Z,96866.41
2022-12-15T19:12:41.357Z,96857.03
2022-12-15T19:15:44.831Z,96851.06
2022-12-15T19:19:05.806Z,96840.03
2022-12-15T19:22:32.176Z,96828.16
2022-12-15T19:25:39.880Z,96823.94
2022-12-15T19:28:42.401Z,96831.78
2022-12-15T19:31:45.617Z,96821.59
2022-12-15T19:34:49.516Z,96815.56
2022-12-15T19:37:55.572Z,96817.38
2022-12-15T19:41:00.603Z,96824.31
2022-12-15T19:44:03.152Z,96824.50
2022-12-15T19:47:15.363Z,96827.88
2022-12-15T19:50:22.236Z,96827.75
2022-12-15T19:53:27.939Z,96828.72
2022-12-15T19:56:31.862Z,96821.84
2022-12-15T19:59:34.969Z,96836.72
2022-12-15T20:02:38.034Z,96834.25
2022-12-15T20:05:40.999Z,96819.50
2022-12-15T20:08:46.425Z,96797.13
2022-12-15T20:11:49.069Z,96790.34
2022-12-15T20:14:53.184Z,96793.22
2022-12-15T20:17:58.483Z,96783.78
2022-12-15T20:21:01.665Z,96759.84
2022-12-15T20:24:14.478Z,96742.19
2022-12-15T20:27:19.768Z,96747.53
2022-12-15T20:30:25.913Z,96745.06
2022-12-15T20:33:28.894Z,96750.25
2022-12-15T20:36:31.986Z,96744.94
2022-12-15T20:39:34.461Z,96740.75
2022-12-15T20:42:38.937Z,96736.16
2022-12-15T20:45:42.322Z,96736.03
2022-12-15T20:48:45.340Z,96742.25
2022-12-15T20:51:48.745Z,96727.75
2022-12-15T20:54:52.702Z,96731.72
2022-12-15T20:57:55.356Z,96721.22
2022-12-15T21:00:58.251Z,96729.81
2022-12-15T21:04:03.300Z,96722.06
2022-12-15T21:07:06.284Z,96712.53
2022-12-15T21:10:09.320Z,96714.38
2022-12-15T21:13:19.338Z,96705.78
2022-12-15T21:16:25.135Z,96705.78
2022-12-15T21:19:28.008Z,96703.19
2022-12-15T21:22:30.429Z,96710.16
2022-12-15T21:25:32.660Z,96712.81
2022-12-15T21:28:34.951Z,96704.94
2022-12-15T21:31:37.190Z,96698.00
2022-12-15T21:34:39.632Z,96678.38
2022-12-15T21:37:43.312Z,96682.09
2022-12-15T21:40:45.366Z,96689.00
2022-12-15T21:43:47.543Z,96682.09
2022-12-15T21:46:49.625Z,96674.47
2022-12-15T21:49:53.565Z,96664.06
2022-12-15T21:52:57.389Z,96667.34
2022-12-15T21:56:01.659Z,96661.16
2022-12-15T21:59:11.675Z,96672.34
2022-12-15T22:02:40.423Z,96676.63
2022-12-15T22:05:42.618Z,96667.81
2022-12-15T22:08:44.751Z,96664.38
2022-12-15T22:11:49.822Z,96667.75
2022-12-15T22:14:52.531Z,96667.81
2022-12-15T22:17:54.683Z,96663.38
2022-12-15T22:20:56.740Z,96647.72
2022-12-15T22:23:58.797Z,96640.66
2022-12-15T22:27:00.975Z,96650.94
2022-12-15T22:30:03.146Z,96644.84
2022-12-15T22:33:19.152Z,96644.75
2022-12-15T22:36:22.640Z,96642.03
2022-12-15T22:39:25.462Z,96639.50
2022-12-15T22:42:27.551Z,96639.44
2022-12-15T22:45:30.002Z,96638.53
2022-12-15T22:48:35.659Z,96628.09
2022-12-15T22:51:38.047Z,96631.53
2022-12-15T22:54:43.992Z,96639.28
2022-12-15T22:57:56.870Z,96640.97
2022-12-15T23:00:59.857Z,96625.44
2022-12-15T23:04:02.375Z,96618.44
2022-12-15T23:07:07.209Z,96614.84
2022-12-15T23:10:29.445Z,96608.69
2022-12-15T23:13:31.700Z,96603.50
2022-12-15T23:16:34.250Z,96586.31
2022-12-15T23:19:36.594Z,96593.84
2022-12-15T23:22:38.670Z,96575.66
2022-12-15T23:25:41.097Z,96585.84
2022-12-15T23:28:43.990Z,96570.16
2022-12-15T23:31:46.070Z,96564.00
2022-12-15T23:34:48.629Z,96567.31
2022-12-15T23:37:50.763Z,96570.53
2022-12-15T23:40:54.507Z,96571.28
2022-12-15T23:43:56.957Z,96573.88
2022-12-15T23:46:59.247Z,96549.97
2022-12-15T23:50:01.873Z,96537.94
2022-12-15T23:53:04.456Z,96537.22
2022-12-15T23:56:16.807Z,96516.72
2022-12-15T23:59:18.993Z,96512.53
